createdAt,value
2017-08-05T00:00:02.862Z,81.35
2017-08-05T00:05:02.891Z,81.29
2017-08-05T00:10:03.405Z,82.4
2017-08-05T00:15:02.908Z,82.89
2017-08-05T00:20:02.793Z,82.13
2017-08-05T00:25:03.312Z,83.46
2017-08-05T00:30:02.782Z,83
2017-08-05T00:35:03.406Z,81.28
2017-08-05T00:40:02.961Z,81.83
2017-08-05T00:45:03.466Z,82.47
2017-08-05T00:50:02.900Z,82.01
2017-08-05T00:55:03.380Z,82.87
2017-08-05T01:00:02.834Z,82.57
2017-08-05T01:05:02.888Z,82.87
2017-08-05T01:10:03.394Z,83.66
2017-08-05T01:15:02.867Z,82.91
2017-08-05T01:20:02.683Z,82.83
2017-08-05T01:25:03.206Z,82.67
2017-08-05T01:30:07.707Z,83.03
2017-08-05T01:35:03.310Z,83.47
2017-08-05T01:40:02.820Z,83.82
2017-08-05T01:45:03.345Z,84.29
2017-08-05T01:50:03.537Z,85.14
2017-08-05T01:55:03.034Z,85.05
2017-08-05T02:00:03.574Z,85.56
2017-08-05T02:05:02.990Z,85.31
2017-08-05T02:10:03.509Z,85.79
2017-08-05T02:15:03.004Z,85.25
2017-08-05T02:20:02.694Z,85.48
2017-08-05T02:25:03.196Z,85.48
2017-08-05T02:30:02.699Z,85.01
2017-08-05T02:35:02.744Z,85.12
2017-08-05T02:40:03.293Z,85.52
2017-08-05T02:45:02.759Z,85.71
2017-08-05T02:50:03.313Z,85.27
2017-08-05T02:55:02.765Z,85.16
2017-08-05T03:00:03.257Z,85.66
2017-08-05T03:05:03.537Z,86.08
2017-08-05T03:10:02.999Z,85.89
2017-08-05T03:15:03.489Z,86.01
2017-08-05T03:20:03.356Z,86.46
2017-08-05T03:25:02.851Z,86.34
2017-08-05T03:30:03.351Z,86.46
2017-08-05T03:35:02.863Z,86.21
2017-08-05T03:40:03.431Z,85.9
2017-08-05T03:45:02.958Z,85.71
2017-08-05T03:50:03.491Z,85.66
2017-08-05T03:55:02.948Z,85.78
2017-08-05T04:00:03.461Z,85.77
2017-08-05T04:05:03.579Z,85.77
2017-08-05T04:10:03.125Z,85.75
2017-08-05T04:15:02.669Z,86.42
2017-08-05T04:20:03.264Z,85.86
2017-08-05T04:25:02.839Z,85.59
2017-08-05T04:30:03.395Z,85.96
2017-08-05T04:35:03.157Z,86.24
2017-08-05T04:40:02.649Z,85.98
2017-08-05T04:45:03.145Z,85.49
2017-08-05T04:50:02.655Z,85.33
2017-08-05T04:55:03.153Z,85.17
2017-08-05T05:00:02.673Z,84.27
2017-08-05T05:05:03.159Z,84.21
2017-08-05T05:10:02.651Z,84.98
2017-08-05T05:15:03.160Z,84.62
2017-08-05T05:20:02.625Z,84.04
2017-08-05T05:25:03.150Z,84.34
2017-08-05T05:30:02.714Z,83.45
2017-08-05T05:35:03.189Z,84.23
2017-08-05T05:40:02.712Z,83.44
2017-08-05T05:45:03.252Z,84.72
2017-08-05T05:50:02.777Z,84.92
2017-08-05T05:55:03.301Z,85.47
2017-08-05T06:00:02.793Z,85.28
2017-08-05T06:05:03.342Z,85.05
2017-08-05T06:10:02.839Z,84.52
2017-08-05T06:15:03.342Z,85.48
2017-08-05T06:20:02.958Z,85.01
2017-08-05T06:25:03.476Z,83.99
2017-08-05T06:30:02.950Z,82.55
2017-08-05T06:35:03.460Z,82.83
2017-08-05T06:40:02.938Z,81.57
2017-08-05T06:45:03.416Z,80.84
2017-08-05T06:50:02.912Z,81.27
2017-08-05T06:55:03.409Z,79.86
2017-08-05T07:00:02.866Z,79.16
2017-08-05T07:05:03.539Z,80.44
2017-08-05T07:10:08.093Z,79.27
2017-08-05T07:15:02.578Z,79.97
2017-08-05T07:20:03.156Z,80.81
2017-08-05T07:25:02.642Z,80.93
2017-08-05T07:30:03.151Z,81.7
2017-08-05T07:35:02.625Z,80.64
2017-08-05T07:40:03.142Z,82.6
2017-08-05T07:45:02.597Z,86.01
2017-08-05T07:50:03.108Z,84.81
2017-08-05T07:55:02.627Z,84.7
2017-08-05T08:00:03.146Z,85.21
2017-08-05T08:05:02.978Z,85.27
2017-08-05T08:10:03.566Z,86.67
2017-08-05T08:15:03.052Z,87.02
2017-08-05T08:20:03.321Z,88.86
2017-08-05T08:25:02.832Z,88.85
2017-08-05T08:30:04.532Z,88.21
2017-08-05T08:35:03.270Z,88.3
2017-08-05T08:40:02.756Z,88.2
2017-08-05T08:45:03.405Z,88.94
2017-08-05T08:50:05.092Z,90
2017-08-05T08:55:02.598Z,92.26
2017-08-05T09:00:03.084Z,93.74
2017-08-05T09:05:03.376Z,93.93
2017-08-05T09:10:02.924Z,94.54
2017-08-05T09:15:03.406Z,95.25
2017-08-05T09:20:03.059Z,95.79
2017-08-05T09:25:03.555Z,96.24
2017-08-05T09:30:03.037Z,95.83
2017-08-05T09:35:03.588Z,96.33
2017-08-05T09:40:03.110Z,96.15
2017-08-05T09:45:02.651Z,96.55
2017-08-05T09:50:03.241Z,95.64
2017-08-05T09:55:02.734Z,96.47
2017-08-05T10:00:03.238Z,96.04
2017-08-05T10:05:03.484Z,97.47
2017-08-05T10:15:03.235Z,97.12
2017-08-05T10:20:03.031Z,97.31
2017-08-05T10:25:03.550Z,98.37
2017-08-05T10:30:03.110Z,97.82
2017-08-05T10:35:02.867Z,98.52
2017-08-05T10:40:03.355Z,98.38
2017-08-05T10:45:02.813Z,98.22
2017-08-05T10:50:02.674Z,98.39
2017-08-05T10:55:03.156Z,98.7
2017-08-05T11:00:02.608Z,98.45
2017-08-05T11:05:03.082Z,97.65
2017-08-05T11:10:03.565Z,97.64
2017-08-05T11:15:03.039Z,97.19
2017-08-05T11:20:03.138Z,96.15
2017-08-05T11:25:02.664Z,94.24
2017-08-05T11:30:03.145Z,95.31
2017-08-05T11:35:02.619Z,96.11
2017-08-05T11:40:03.112Z,94.09
2017-08-05T11:45:02.621Z,93.83
2017-08-05T11:50:03.022Z,94.22
2017-08-05T11:55:03.529Z,94.99
2017-08-05T12:00:02.983Z,93.85
2017-08-05T12:05:03.143Z,94.4
2017-08-05T12:10:02.614Z,92.74
2017-08-05T12:15:04.342Z,91.78
2017-08-05T12:20:03.597Z,93.36
2017-08-05T12:25:03.084Z,91.74
2017-08-05T12:30:02.585Z,93.12
2017-08-05T12:35:03.083Z,92.29
2017-08-05T12:40:02.602Z,93.17
2017-08-05T12:45:03.134Z,92.54
2017-08-05T12:50:02.632Z,92.77
2017-08-05T12:55:03.143Z,93.9
2017-08-05T13:00:02.630Z,93.12
2017-08-05T13:05:03.404Z,92.51
2017-08-05T13:10:02.940Z,89.68
2017-08-05T13:15:03.457Z,90.61
2017-08-05T13:20:03.320Z,91.1
2017-08-05T13:25:02.812Z,90.36
2017-08-05T13:30:03.281Z,90.68
2017-08-05T13:35:03.104Z,90.59
2017-08-05T13:40:02.588Z,90.23
2017-08-05T13:45:03.084Z,91.08
2017-08-05T13:50:03.023Z,90.09
2017-08-05T13:55:03.521Z,90.38
2017-08-05T14:00:02.973Z,90.79
2017-08-05T14:05:03.558Z,90.87
2017-08-05T14:10:03.034Z,89.5
2017-08-05T14:15:03.563Z,90.2
2017-08-05T14:20:03.180Z,89.46
2017-08-05T14:25:02.676Z,89.49
2017-08-05T14:30:03.225Z,89.1
2017-08-05T14:35:02.668Z,89.25
2017-08-05T14:40:03.188Z,89.46
2017-08-05T14:45:02.644Z,89.78
2017-08-05T14:50:03.513Z,89.73
2017-08-05T14:55:03.034Z,89.87
2017-08-05T15:00:03.552Z,92.85
2017-08-05T15:05:03.214Z,91.83
2017-08-05T15:10:02.684Z,91
2017-08-05T15:15:03.176Z,89.82
2017-08-05T15:20:03.624Z,90.73
2017-08-05T15:25:03.137Z,90.46
2017-08-05T15:30:02.664Z,89.35
2017-08-05T15:35:03.387Z,89.46
2017-08-05T15:40:02.908Z,88.69
2017-08-05T15:45:03.412Z,88.21
2017-08-05T15:50:02.902Z,87.44
2017-08-05T15:55:03.443Z,84.76
2017-08-05T16:00:02.895Z,85.11
2017-08-05T16:05:03.541Z,85.3
2017-08-05T16:10:03.101Z,85.53
2017-08-05T16:15:02.586Z,84.33
2017-08-05T16:20:03.236Z,83.23
2017-08-05T16:25:02.750Z,82.75
2017-08-05T16:30:03.281Z,83.31
2017-08-05T16:35:02.898Z,80.67
2017-08-05T16:40:03.404Z,79.48
2017-08-05T16:45:02.894Z,78.48
2017-08-05T16:50:02.641Z,78.04
2017-08-05T16:55:03.122Z,78.41
2017-08-05T17:00:02.599Z,80.01
2017-08-05T17:05:03.336Z,80.13
2017-08-05T17:10:02.834Z,80.51
2017-08-05T17:15:03.321Z,80.92
2017-08-05T17:20:03.587Z,81.49
2017-08-05T17:25:03.125Z,81.96
2017-08-05T17:30:02.642Z,82.9
2017-08-05T17:35:03.143Z,83.07
2017-08-05T17:40:02.649Z,83.5
2017-08-05T17:45:03.098Z,84.04
2017-08-05T17:50:03.022Z,84.66
2017-08-05T17:55:03.517Z,85.34
2017-08-05T18:00:02.985Z,86.49
2017-08-05T18:05:03.571Z,86.93
2017-08-05T18:10:03.079Z,87.17
2017-08-05T18:15:03.564Z,88.24
2017-08-05T18:20:03.250Z,88.3
2017-08-05T18:25:02.745Z,87.94
2017-08-05T18:30:03.228Z,87.69
2017-08-05T18:35:02.953Z,88.13
2017-08-05T18:40:03.496Z,89.89
2017-08-05T18:45:02.970Z,89.87
2017-08-05T18:50:03.351Z,90.45
2017-08-05T18:55:02.838Z,91.16
2017-08-05T19:00:03.315Z,91.95
2017-08-05T19:05:02.842Z,92.05
2017-08-05T19:10:03.348Z,92.58
2017-08-05T19:15:02.860Z,92.49
2017-08-05T19:20:03.487Z,92.21
2017-08-05T19:25:03.119Z,91.44
2017-08-05T19:30:02.784Z,90.39
2017-08-05T19:35:03.291Z,90.07
2017-08-05T19:40:07.907Z,89.02
2017-08-05T19:45:03.415Z,88.75
2017-08-05T19:50:03.038Z,88.96
2017-08-05T19:55:03.515Z,89.26
2017-08-05T20:00:02.967Z,90.05
2017-08-05T20:05:03.047Z,90.17
2017-08-05T20:10:03.579Z,90.55
2017-08-05T20:15:03.076Z,90.49
2017-08-05T20:20:02.807Z,90.24
2017-08-05T20:25:03.299Z,89.59
2017-08-05T20:30:02.771Z,89.94
2017-08-05T20:35:03.513Z,89.55
2017-08-05T20:40:02.995Z,89.49
2017-08-05T20:45:03.484Z,89.62
2017-08-05T20:50:03.190Z,89.73
2017-08-05T20:55:02.696Z,89.62
2017-08-05T21:00:03.171Z,89.69
2017-08-05T21:05:02.912Z,90.24
2017-08-05T21:10:03.430Z,89.65
2017-08-05T21:15:02.945Z,89.15
2017-08-05T21:20:02.860Z,88.97
2017-08-05T21:25:03.392Z,89.62
2017-08-05T21:30:02.884Z,89.17
2017-08-05T21:35:02.744Z,89.02
2017-08-05T21:40:03.273Z,89.47
2017-08-05T21:45:02.784Z,89.59
2017-08-05T21:50:03.268Z,89.71
2017-08-05T21:55:02.792Z,89.79
2017-08-05T22:00:03.398Z,90.42
2017-08-05T22:05:03.438Z,90.42
2017-08-05T22:10:02.903Z,90.66
2017-08-05T22:15:03.435Z,90.68
2017-08-05T22:20:02.852Z,91.2
2017-08-05T22:25:03.392Z,91.91
2017-08-05T22:30:02.924Z,91.49
2017-08-05T22:35:03.370Z,91.71
2017-08-05T22:40:02.843Z,91.35
2017-08-05T22:45:03.353Z,91.8
2017-08-05T22:50:03.151Z,91.97
2017-08-05T22:55:02.641Z,91.84
2017-08-05T23:00:03.195Z,92.28
2017-08-05T23:05:02.716Z,92.38
2017-08-05T23:10:03.269Z,92.84
2017-08-05T23:15:02.772Z,92.88
2017-08-05T23:20:02.666Z,93.52
2017-08-05T23:25:03.145Z,93.53
2017-08-05T23:30:02.675Z,94.22
2017-08-05T23:35:02.789Z,93.81
2017-08-05T23:40:03.339Z,93.86
2017-08-05T23:45:04.064Z,94.6
2017-08-05T23:50:02.788Z,94.37
2017-08-05T23:55:03.267Z,94.82
